Time;durP1;ratioP1;P1;durP2;ratioP2;P2;SDS_P1;SDS_P2;PMS_P1;PMS_P2;Temp;Humidity;BMP_temperature;BMP_pressure;BME280_temperature;BME280_humidity;BME280_pressure;Samples;Min_cycle;Max_cycle;Signal;HPM_P1;HPM_P2
2023/01/16 00:01:49;;;;;;;0.80;0.70;;;7.30;99.90;;;;;;5052438;28;20203;-65
2023/01/16 00:04:16;;;;;;;0.80;0.80;;;7.30;99.90;;;;;;5052675;28;20203;-66
2023/01/16 00:06:43;;;;;;;0.70;0.70;;;7.30;99.90;;;;;;5052902;28;20315;-64
2023/01/16 00:09:10;;;;;;;0.80;0.80;;;7.30;99.90;;;;;;5052341;28;20749;-65
2023/01/16 00:11:37;;;;;;;0.80;0.80;;;7.20;99.90;;;;;;5052067;28;20200;-66
2023/01/16 00:14:05;;;;;;;0.63;0.63;;;7.20;99.90;;;;;;5052546;28;20307;-67
2023/01/16 00:16:32;;;;;;;0.47;0.47;;;7.20;99.90;;;;;;5052641;28;20612;-66
2023/01/16 00:18:59;;;;;;;0.70;0.70;;;7.20;99.90;;;;;;5054022;28;20206;-65
2023/01/16 00:21:26;;;;;;;0.90;0.90;;;7.20;99.90;;;;;;5054572;28;20633;-67
2023/01/16 00:23:54;;;;;;;0.80;0.80;;;7.20;99.90;;;;;;5055085;28;20895;-66
2023/01/16 00:26:21;;;;;;;0.60;0.60;;;7.30;99.90;;;;;;5053513;28;20220;-64
2023/01/16 00:28:48;;;;;;;0.80;0.80;;;7.30;99.90;;;;;;5052737;28;20216;-66
2023/01/16 00:31:16;;;;;;;0.73;0.73;;;7.20;99.90;;;;;;5052679;28;20549;-64
2023/01/16 00:33:43;;;;;;;0.60;0.60;;;7.20;99.90;;;;;;5052868;28;20614;-65
2023/01/16 00:36:10;;;;;;;0.67;0.67;;;7.10;99.90;;;;;;5053494;28;20196;-66
2023/01/16 00:38:38;;;;;;;0.77;0.77;;;7.10;99.90;;;;;;5064434;28;20220;-66
2023/01/16 00:41:05;;;;;;;0.60;0.60;;;7.10;99.90;;;;;;5072465;28;20267;-66
2023/01/16 00:43:32;;;;;;;0.60;0.60;;;7.10;99.90;;;;;;5075318;28;20228;-67
2023/01/16 00:45:59;;;;;;;0.80;0.80;;;7.10;99.90;;;;;;5072908;28;20204;-67
2023/01/16 00:48:27;;;;;;;0.77;0.77;;;7.10;99.90;;;;;;5071772;28;20234;-67
2023/01/16 00:50:54;;;;;;;0.80;0.80;;;7.10;99.90;;;;;;5058570;28;20200;-66
2023/01/16 00:53:21;;;;;;;0.67;0.67;;;7.00;99.90;;;;;;5053632;28;20206;-65
2023/01/16 00:55:47;;;;;;;0.50;0.50;;;7.10;99.90;;;;;;5053385;28;20200;-65
2023/01/16 00:58:14;;;;;;;0.73;0.73;;;7.00;99.90;;;;;;5052965;28;20220;-64
2023/01/16 01:00:41;;;;;;;0.77;0.77;;;7.00;99.90;;;;;;5052548;28;20199;-66
2023/01/16 01:03:08;;;;;;;0.70;0.70;;;7.00;99.90;;;;;;5049472;28;20546;-64
2023/01/16 01:05:38;;;;;;;0.70;0.70;;;7.00;99.90;;;;;;5051759;28;20809;-65
2023/01/16 01:08:05;;;;;;;0.60;0.60;;;6.90;99.90;;;;;;5051560;28;20227;-66
2023/01/16 01:10:33;;;;;;;0.80;0.80;;;7.00;99.90;;;;;;5051459;28;20200;-65
2023/01/16 01:12:59;;;;;;;0.77;0.77;;;7.00;99.90;;;;;;5052648;28;20587;-66
2023/01/16 01:15:26;;;;;;;0.70;0.70;;;7.10;99.90;;;;;;5051260;28;20704;-64
2023/01/16 01:17:53;;;;;;;0.73;0.70;;;7.00;99.90;;;;;;5052084;28;20232;-67
2023/01/16 01:20:20;;;;;;;0.97;0.93;;;7.00;99.90;;;;;;5051841;28;20282;-64
2023/01/16 01:22:49;;;;;;;0.90;0.90;;;7.10;99.90;;;;;;5052219;28;20192;-65
2023/01/16 01:25:16;;;;;;;0.67;0.67;;;7.10;99.90;;;;;;5051793;28;20207;-66
2023/01/16 01:27:43;;;;;;;0.80;0.80;;;7.10;99.90;;;;;;5051678;28;20255;-64
2023/01/16 01:30:11;;;;;;;0.70;0.70;;;7.10;99.90;;;;;;5050591;28;20204;-66
2023/01/16 01:32:38;;;;;;;0.77;0.77;;;7.10;99.90;;;;;;5051369;28;20227;-67
2023/01/16 01:35:06;;;;;;;0.70;0.70;;;7.10;99.90;;;;;;5050537;28;20235;-66
2023/01/16 01:37:33;;;;;;;0.90;0.90;;;7.10;99.90;;;;;;5050883;28;20243;-65
2023/01/16 01:40:01;;;;;;;0.80;0.80;;;7.10;99.90;;;;;;5050669;28;20226;-65
2023/01/16 01:42:43;;;;;;;0.67;0.67;;;7.10;99.90;;;;;;5051215;28;21015;-66
2023/01/16 01:45:16;;;;;;;0.50;0.50;;;7.10;99.90;;;;;;5050527;28;20218;-66
2023/01/16 01:47:49;;;;;;;0.90;0.90;;;7.10;99.90;;;;;;5050871;28;20243;-64
2023/01/16 01:50:21;;;;;;;0.80;0.80;;;7.00;99.90;;;;;;5055322;28;20188;-64
2023/01/16 01:52:48;;;;;;;0.70;0.67;;;7.00;99.90;;;;;;5058371;28;20203;-66
2023/01/16 01:55:17;;;;;;;0.60;0.60;;;7.00;99.90;;;;;;5050140;28;20207;-66
2023/01/16 01:57:52;;;;;;;0.73;0.73;;;7.00;99.90;;;;;;5049672;28;20242;-65
2023/01/16 02:00:21;;;;;;;0.90;0.90;;;7.00;99.90;;;;;;5051684;28;20207;-65
2023/01/16 02:02:53;;;;;;;0.70;0.70;;;7.00;99.90;;;;;;5052063;28;20296;-65
2023/01/16 02:05:25;;;;;;;0.80;0.80;;;7.00;99.90;;;;;;5051513;28;20207;-66
2023/01/16 02:07:53;;;;;;;0.90;0.90;;;7.00;99.90;;;;;;5051603;28;20238;-65
2023/01/16 02:10:28;;;;;;;0.80;0.80;;;7.00;99.90;;;;;;5052704;28;20218;-66
2023/01/16 02:12:55;;;;;;;0.80;0.80;;;7.00;99.90;;;;;;5054418;28;20223;-67
2023/01/16 02:15:23;;;;;;;1.10;1.07;;;7.10;99.90;;;;;;5056997;28;20674;-64
2023/01/16 02:20:46;;;;;;;0.57;0.57;;;7.10;99.90;;;;;;5067932;28;20210;-66
2023/01/16 02:23:48;;;;;;;0.90;0.90;;;7.10;99.90;;;;;;5062572;28;20200;-65
2023/01/16 02:26:58;;;;;;;2.07;0.80;;;7.10;99.90;;;;;;5064500;28;20184;-66
2023/01/16 02:30:08;;;;;;;0.63;0.63;;;7.20;99.90;;;;;;5060512;28;20207;-66
2023/01/16 02:32:51;;;;;;;0.63;0.63;;;7.20;99.90;;;;;;5067621;28;20267;-66
2023/01/16 02:35:39;;;;;;;0.83;0.70;;;7.20;99.90;;;;;;5071638;28;20215;-64
2023/01/16 02:38:14;;;;;;;0.60;0.60;;;7.20;99.90;;;;;;5067597;28;20314;-69
2023/01/16 02:40:49;;;;;;;0.80;0.80;;;7.20;99.90;;;;;;5070816;28;20275;-65
2023/01/16 02:43:26;;;;;;;0.70;0.70;;;7.20;99.90;;;;;;5068023;28;20207;-66
2023/01/16 02:46:01;;;;;;;0.67;0.67;;;7.10;99.90;;;;;;5067115;28;20463;-66
2023/01/16 02:48:39;;;;;;;0.67;0.67;;;7.10;99.90;;;;;;5050722;28;20237;-66
2023/01/16 02:51:13;;;;;;;0.80;0.80;;;7.10;99.90;;;;;;5058025;28;20204;-65
2023/01/16 02:53:49;;;;;;;0.63;0.63;;;7.00;99.90;;;;;;5061078;28;20204;-65
2023/01/16 02:56:21;;;;;;;0.63;0.63;;;7.00;99.90;;;;;;5053224;28;20207;-67
2023/01/16 02:58:49;;;;;;;0.70;0.70;;;7.00;99.90;;;;;;5049774;28;20311;-66
2023/01/16 03:01:19;;;;;;;0.77;0.77;;;7.00;99.90;;;;;;5050930;28;20203;-64
2023/01/16 03:03:51;;;;;;;0.63;0.63;;;7.00;99.90;;;;;;5051048;28;20200;-64
2023/01/16 03:06:32;;;;;;;0.73;0.67;;;7.10;99.90;;;;;;5050375;28;20697;-65
2023/01/16 03:09:30;;;;;;;0.60;0.60;;;7.10;99.90;;;;;;5051241;28;20212;-66
2023/01/16 03:12:21;;;;;;;0.70;0.70;;;7.10;99.90;;;;;;5050997;28;20686;-65
2023/01/16 03:14:56;;;;;;;0.70;0.70;;;7.10;99.90;;;;;;5050007;28;20208;-65
2023/01/16 03:17:38;;;;;;;0.73;0.73;;;7.10;99.90;;;;;;5050518;28;20597;-65
2023/01/16 03:20:14;;;;;;;0.63;0.63;;;7.10;99.90;;;;;;5051277;28;20213;-65
2023/01/16 03:22:44;;;;;;;0.70;0.70;;;7.20;99.90;;;;;;5049850;28;20210;-64
2023/01/16 03:25:20;;;;;;;0.80;0.80;;;7.10;99.90;;;;;;5049486;28;20218;-67
2023/01/16 03:27:57;;;;;;;0.60;0.60;;;7.10;99.90;;;;;;5049501;28;20227;-65
2023/01/16 03:30:31;;;;;;;0.53;0.53;;;7.20;99.90;;;;;;5049731;28;20633;-65
2023/01/16 03:33:05;;;;;;;0.60;0.60;;;7.20;99.90;;;;;;5049746;28;20311;-64
2023/01/16 03:35:35;;;;;;;0.60;0.60;;;7.20;99.90;;;;;;5051647;28;20266;-66
2023/01/16 03:38:06;;;;;;;0.60;0.60;;;7.20;99.90;;;;;;5053496;28;20251;-64
2023/01/16 03:40:37;;;;;;;0.60;0.60;;;7.20;99.90;;;;;;5052621;28;20559;-65
2023/01/16 03:43:09;;;;;;;0.60;0.60;;;7.10;99.90;;;;;;5056495;28;20212;-66
2023/01/16 03:45:42;;;;;;;0.68;0.68;;;7.20;99.90;;;;;;5052420;28;20208;-66
2023/01/16 03:48:17;;;;;;;0.80;0.80;;;7.20;99.90;;;;;;5053488;28;20231;-66
2023/01/16 03:50:52;;;;;;;0.60;0.60;;;7.10;99.90;;;;;;5053994;28;20207;-68
2023/01/16 03:53:25;;;;;;;0.70;0.70;;;7.20;99.90;;;;;;5053790;28;20217;-65
2023/01/16 03:55:57;;;;;;;0.70;0.70;;;7.20;99.90;;;;;;5052820;28;20204;-66
2023/01/16 03:58:29;;;;;;;0.60;0.60;;;7.20;99.90;;;;;;5053031;28;20578;-65
2023/01/16 04:01:06;;;;;;;0.40;0.40;;;7.20;99.90;;;;;;5052711;28;20208;-65
2023/01/16 04:03:40;;;;;;;0.50;0.50;;;7.10;99.90;;;;;;5053006;28;20208;-65
2023/01/16 04:06:16;;;;;;;0.50;0.50;;;7.20;99.90;;;;;;5065211;28;20184;-67
2023/01/16 04:08:45;;;;;;;0.70;0.70;;;7.20;99.90;;;;;;5057223;28;20687;-66
2023/01/16 04:11:14;;;;;;;0.77;0.60;;;7.20;99.90;;;;;;5052607;28;20204;-65
2023/01/16 04:13:44;;;;;;;0.80;0.60;;;7.20;99.90;;;;;;5053694;28;20212;-65
2023/01/16 04:16:17;;;;;;;0.60;0.60;;;7.20;99.90;;;;;;5065376;28;20280;-65
2023/01/16 04:18:45;;;;;;;0.73;0.70;;;7.10;99.90;;;;;;5070687;28;20311;-66
2023/01/16 04:21:13;;;;;;;0.50;0.50;;;7.10;99.90;;;;;;5073542;28;20271;-67
2023/01/16 04:23:40;;;;;;;0.67;0.60;;;7.10;99.90;;;;;;5066162;28;20214;-66
2023/01/16 04:26:07;;;;;;;0.80;0.80;;;7.10;99.90;;;;;;5061351;28;20200;-67
2023/01/16 04:28:33;;;;;;;0.50;0.50;;;7.10;99.90;;;;;;5055061;28;20231;-65
2023/01/16 04:31:00;;;;;;;0.60;0.60;;;7.00;99.90;;;;;;5057720;28;20585;-66
2023/01/16 04:33:27;;;;;;;0.50;0.50;;;7.00;99.90;;;;;;5051969;28;20208;-65
2023/01/16 04:35:54;;;;;;;0.73;0.73;;;7.00;99.90;;;;;;5051140;28;20666;-65
2023/01/16 04:38:22;;;;;;;0.60;0.60;;;7.00;99.90;;;;;;5052037;28;20228;-65
2023/01/16 04:40:49;;;;;;;0.60;0.60;;;7.00;99.90;;;;;;5051782;28;20200;-64
2023/01/16 04:43:16;;;;;;;0.73;0.73;;;6.90;99.90;;;;;;5052126;28;20316;-66
2023/01/16 04:45:42;;;;;;;0.60;0.60;;;6.90;99.90;;;;;;5050905;28;20667;-66
2023/01/16 04:48:09;;;;;;;0.60;0.60;;;6.90;99.90;;;;;;5051484;28;20240;-67
2023/01/16 04:50:36;;;;;;;0.67;0.67;;;6.90;99.90;;;;;;5053434;28;20212;-65
2023/01/16 04:53:03;;;;;;;0.63;0.63;;;6.90;99.90;;;;;;5053169;28;20207;-65
2023/01/16 04:55:31;;;;;;;0.50;0.50;;;6.80;99.90;;;;;;5052948;28;20582;-65
2023/01/16 04:57:58;;;;;;;0.57;0.53;;;6.80;99.90;;;;;;5053478;28;20224;-66
2023/01/16 05:00:25;;;;;;;0.60;0.60;;;6.80;99.90;;;;;;5052855;28;20211;-65
2023/01/16 05:02:53;;;;;;;0.70;0.70;;;6.80;99.90;;;;;;5054163;28;20214;-67
2023/01/16 05:05:20;;;;;;;1.00;0.90;;;6.80;99.90;;;;;;5053020;28;20587;-65
2023/01/16 05:08:15;;;;;;;0.50;0.50;;;6.80;99.90;;;;;;5051244;28;20240;-64
2023/01/16 05:10:36;;;;;;;0.77;0.77;;;6.80;99.90;;;;;;5051489;28;20199;-65
2023/01/16 05:13:03;;;;;;;0.53;0.53;;;6.80;99.90;;;;;;5051733;28;20204;-65
2023/01/16 05:15:30;;;;;;;0.60;0.60;;;6.70;99.90;;;;;;5054996;28;20212;-65
2023/01/16 05:17:57;;;;;;;0.80;0.80;;;6.70;99.90;;;;;;5058052;28;20230;-66
2023/01/16 05:20:24;;;;;;;0.90;0.90;;;6.70;99.90;;;;;;5051746;28;20204;-66
2023/01/16 05:22:50;;;;;;;0.60;0.60;;;6.70;99.90;;;;;;5051144;28;20210;-66
2023/01/16 05:25:17;;;;;;;0.67;0.67;;;6.70;99.90;;;;;;5051345;28;20211;-64
2023/01/16 05:27:50;;;;;;;0.70;0.70;;;6.60;99.90;;;;;;5051063;28;20224;-65
2023/01/16 05:30:17;;;;;;;0.80;0.80;;;6.70;99.90;;;;;;5050715;28;20208;-65
2023/01/16 05:32:44;;;;;;;0.60;0.60;;;6.60;99.90;;;;;;5051143;28;20303;-65
2023/01/16 05:35:11;;;;;;;0.60;0.60;;;6.60;99.90;;;;;;5050488;28;20684;-63
2023/01/16 05:37:37;;;;;;;0.63;0.63;;;6.70;99.90;;;;;;5051898;28;20226;-65
2023/01/16 05:40:05;;;;;;;0.60;0.60;;;6.70;99.90;;;;;;5051794;28;20204;-65
2023/01/16 05:42:32;;;;;;;0.67;0.67;;;6.70;99.90;;;;;;5050913;28;20211;-66
2023/01/16 05:45:00;;;;;;;0.33;0.33;;;6.70;99.90;;;;;;5050680;28;20210;-66
2023/01/16 05:47:27;;;;;;;0.60;0.60;;;6.80;99.90;;;;;;5050600;28;20224;-66
2023/01/16 05:49:57;;;;;;;0.50;0.50;;;6.80;99.90;;;;;;5052256;28;20211;-65
2023/01/16 05:52:24;;;;;;;0.60;0.60;;;6.80;99.90;;;;;;5051554;28;20240;-64
2023/01/16 05:54:52;;;;;;;0.80;0.80;;;7.00;99.90;;;;;;5052551;28;20208;-67
2023/01/16 05:57:19;;;;;;;0.60;0.60;;;6.90;99.90;;;;;;5051127;28;20231;-64
2023/01/16 05:59:48;;;;;;;0.40;0.40;;;7.00;99.90;;;;;;5059252;28;20204;-66
2023/01/16 06:02:17;;;;;;;0.60;0.60;;;7.00;99.90;;;;;;5051411;28;20263;-65
2023/01/16 06:04:44;;;;;;;0.43;0.43;;;7.10;99.90;;;;;;5051103;28;20210;-65
2023/01/16 06:07:11;;;;;;;1.00;0.80;;;7.20;99.90;;;;;;5051503;28;20224;-66
2023/01/16 06:09:38;;;;;;;0.70;0.70;;;7.20;99.90;;;;;;5057290;28;20597;-67
2023/01/16 06:12:07;;;;;;;0.60;0.60;;;7.20;99.90;;;;;;5051636;28;20870;-66
2023/01/16 06:14:34;;;;;;;0.70;0.57;;;7.10;99.90;;;;;;5050281;28;20686;-66
2023/01/16 06:17:01;;;;;;;0.60;0.60;;;7.10;99.90;;;;;;5050253;28;20307;-66
2023/01/16 06:19:30;;;;;;;0.77;0.77;;;7.10;99.90;;;;;;5052433;28;20218;-64
2023/01/16 06:21:57;;;;;;;0.60;0.60;;;7.10;99.90;;;;;;5057975;28;20267;-66
2023/01/16 06:24:23;;;;;;;0.60;0.60;;;7.20;99.90;;;;;;5056014;28;20294;-65
2023/01/16 06:26:50;;;;;;;0.50;0.50;;;7.20;99.90;;;;;;5056819;28;20298;-66
2023/01/16 06:29:17;;;;;;;0.40;0.40;;;7.20;99.90;;;;;;5054151;28;20220;-65
2023/01/16 06:31:44;;;;;;;0.60;0.60;;;7.20;99.90;;;;;;5055455;28;20204;-66
2023/01/16 06:34:12;;;;;;;0.40;0.40;;;7.30;99.90;;;;;;5056093;28;20203;-66
2023/01/16 06:36:41;;;;;;;0.50;0.50;;;7.20;99.90;;;;;;5049213;28;20246;-64
2023/01/16 06:39:08;;;;;;;0.43;0.43;;;7.20;99.90;;;;;;5049978;28;20200;-65
2023/01/16 06:41:34;;;;;;;0.70;0.70;;;7.20;99.90;;;;;;5049772;28;20208;-66
2023/01/16 06:44:01;;;;;;;0.40;0.40;;;7.30;99.90;;;;;;5054262;28;20230;-64
2023/01/16 06:46:28;;;;;;;0.50;0.50;;;7.30;99.90;;;;;;5054160;28;20299;-63
2023/01/16 06:48:55;;;;;;;0.40;0.40;;;7.40;99.90;;;;;;5055681;28;20211;-65
2023/01/16 06:51:22;;;;;;;0.60;0.60;;;7.40;99.90;;;;;;5056621;28;20196;-66
2023/01/16 06:53:50;;;;;;;0.70;0.70;;;7.40;99.90;;;;;;5054838;28;20291;-65
2023/01/16 06:56:17;;;;;;;0.57;0.57;;;7.30;99.90;;;;;;5052884;28;20208;-64
2023/01/16 06:58:44;;;;;;;0.80;0.80;;;7.20;99.90;;;;;;5051351;28;20265;-64
2023/01/16 07:01:11;;;;;;;1.17;0.50;;;7.30;99.90;;;;;;5051209;28;20200;-66
2023/01/16 07:03:38;;;;;;;0.40;0.40;;;7.30;99.90;;;;;;5050781;28;20211;-66
2023/01/16 07:06:05;;;;;;;0.60;0.60;;;7.40;99.90;;;;;;5052264;28;20207;-65
2023/01/16 07:08:33;;;;;;;0.50;0.50;;;7.40;99.90;;;;;;5053914;28;20227;-65
2023/01/16 07:11:01;;;;;;;0.40;0.40;;;7.40;99.90;;;;;;5055554;28;20212;-65
2023/01/16 07:13:28;;;;;;;0.57;0.57;;;7.40;99.90;;;;;;5055699;28;20216;-64
2023/01/16 07:24:22;;;;;;;0.33;0.33;;;7.60;99.90;;;;;;5053384;28;20206;-67
2023/01/16 07:26:57;;;;;;;0.57;0.57;;;7.60;99.90;;;;;;5053392;28;20294;-65
2023/01/16 07:29:24;;;;;;;0.70;0.70;;;7.70;99.90;;;;;;5053048;28;20231;-65
2023/01/16 07:31:51;;;;;;;0.50;0.50;;;7.70;99.90;;;;;;5053054;28;20207;-64
2023/01/16 07:34:18;;;;;;;0.50;0.50;;;7.70;99.90;;;;;;5053379;28;20208;-65
2023/01/16 07:36:45;;;;;;;0.60;0.60;;;7.70;99.90;;;;;;5054464;28;20200;-65
2023/01/16 07:39:11;;;;;;;0.40;0.40;;;7.60;99.90;;;;;;5055877;28;20200;-64
2023/01/16 07:41:38;;;;;;;0.40;0.40;;;7.60;99.90;;;;;;5055383;28;20294;-66
2023/01/16 07:44:07;;;;;;;0.57;0.57;;;7.70;99.90;;;;;;5056494;28;20208;-65
2023/01/16 07:46:34;;;;;;;0.50;0.50;;;7.70;99.90;;;;;;5055965;28;20204;-64
2023/01/16 07:49:00;;;;;;;0.47;0.40;;;7.80;99.90;;;;;;5055107;28;20694;-65
2023/01/16 07:51:27;;;;;;;0.60;0.60;;;7.80;99.90;;;;;;5059382;28;20208;-65
2023/01/16 07:53:54;;;;;;;2.53;0.50;;;7.80;99.90;;;;;;5069832;28;20208;-65
2023/01/16 07:56:21;;;;;;;0.60;0.60;;;7.80;99.90;;;;;;5065859;28;20200;-65
2023/01/16 07:58:49;;;;;;;0.60;0.60;;;7.70;99.90;;;;;;5058931;28;20227;-65
2023/01/16 08:01:17;;;;;;;0.47;0.47;;;7.70;99.90;;;;;;5053994;28;20254;-65
2023/01/16 08:03:44;;;;;;;0.50;0.50;;;7.70;99.90;;;;;;5053626;28;20208;-64
2023/01/16 08:06:11;;;;;;;0.60;0.60;;;7.70;99.90;;;;;;5053390;28;20203;-65
2023/01/16 08:08:37;;;;;;;0.50;0.50;;;7.80;99.90;;;;;;5054001;28;20275;-64
2023/01/16 08:11:35;;;;;;;0.80;0.80;;;7.80;99.90;;;;;;5053996;28;20291;-65
2023/01/16 08:13:53;;;;;;;0.80;0.80;;;7.80;99.90;;;;;;5053342;28;20273;-65
2023/01/16 08:16:21;;;;;;;0.40;0.40;;;7.80;99.90;;;;;;5052846;28;20215;-65
2023/01/16 08:18:48;;;;;;;0.47;0.47;;;7.80;99.90;;;;;;5054055;28;20220;-65
2023/01/16 08:21:17;;;;;;;0.70;0.70;;;7.70;99.90;;;;;;5061659;28;20219;-68
2023/01/16 08:23:44;;;;;;;0.47;0.47;;;7.80;99.90;;;;;;5066621;28;20204;-66
2023/01/16 08:26:11;;;;;;;0.30;0.30;;;7.80;99.90;;;;;;5065005;28;20272;-66
2023/01/16 08:28:38;;;;;;;0.50;0.50;;;7.80;99.90;;;;;;5065564;28;20327;-67
2023/01/16 08:31:07;;;;;;;0.50;0.50;;;7.90;99.90;;;;;;5067147;28;20591;-65
2023/01/16 08:33:36;;;;;;;0.63;0.63;;;7.90;99.90;;;;;;5062529;28;20208;-67
2023/01/16 08:36:03;;;;;;;0.50;0.50;;;7.90;99.90;;;;;;5067682;28;20204;-66
2023/01/16 08:38:30;;;;;;;0.37;0.37;;;8.00;99.90;;;;;;5054919;28;20835;-65
2023/01/16 08:40:57;;;;;;;0.43;0.43;;;8.20;99.90;;;;;;5053206;28;20214;-65
2023/01/16 08:51:47;;;;;;;0.30;0.30;;;8.60;99.90;;;;;;5052762;28;20254;-67
2023/01/16 08:54:14;;;;;;;0.37;0.30;;;8.70;99.90;;;;;;5056541;28;20207;-66
2023/01/16 08:56:42;;;;;;;0.20;0.20;;;8.80;99.90;;;;;;5057712;28;20200;-65
2023/01/16 08:59:09;;;;;;;0.20;0.20;;;8.80;99.90;;;;;;5052265;28;20301;-67
2023/01/16 09:01:37;;;;;;;0.33;0.33;;;8.80;99.90;;;;;;5052326;28;20208;-64
2023/01/16 09:04:05;;;;;;;0.30;0.30;;;8.80;99.90;;;;;;5063657;28;20203;-64
2023/01/16 09:06:35;;;;;;;0.40;0.40;;;8.80;99.90;;;;;;5071200;28;20204;-66
2023/01/16 09:09:02;;;;;;;0.22;0.22;;;8.80;99.90;;;;;;5054962;28;20220;-66
2023/01/16 09:14:13;;;;;;;0.50;0.50;;;8.90;99.90;;;;;;5051205;28;20214;-64
2023/01/16 09:16:40;;;;;;;0.30;0.30;;;8.90;99.90;;;;;;5050704;28;20661;-64
2023/01/16 09:19:08;;;;;;;0.23;0.23;;;8.90;99.90;;;;;;5051187;28;20215;-67
2023/01/16 09:21:35;;;;;;;0.30;0.30;;;8.90;99.90;;;;;;5057160;28;20226;-66
2023/01/16 09:24:02;;;;;;;0.30;0.30;;;8.90;99.90;;;;;;5055257;28;20206;-66
2023/01/16 09:26:30;;;;;;;0.47;0.47;;;8.90;99.90;;;;;;5052674;28;20200;-65
2023/01/16 09:28:57;;;;;;;0.30;0.30;;;8.90;99.90;;;;;;5052815;28;20230;-66
2023/01/16 09:31:24;;;;;;;0.30;0.20;;;9.00;99.90;;;;;;5052341;28;20199;-66
2023/01/16 09:33:52;;;;;;;0.23;0.23;;;8.90;99.90;;;;;;5047956;28;20338;-67
2023/01/16 09:36:20;;;;;;;0.20;0.20;;;8.90;99.90;;;;;;5051484;28;20208;-65
2023/01/16 09:38:47;;;;;;;0.50;0.50;;;8.90;99.90;;;;;;5072144;28;20310;-65
2023/01/16 09:43:35;;;;;;;0.37;0.37;;;8.90;99.90;;;;;;5072168;28;20206;-65
2023/01/16 09:44:06;;;;;;;0.45;0.45;;;8.90;99.90;;;;;;5069559;28;20261;-65
2023/01/16 09:46:37;;;;;;;0.40;0.40;;;8.80;99.90;;;;;;5055738;28;20204;-63
2023/01/16 09:49:12;;;;;;;0.20;0.20;;;8.80;99.90;;;;;;5051504;28;20230;-65
2023/01/16 09:58:34;;;;;;;0.30;0.30;;;8.80;99.90;;;;;;5048868;28;20221;-65
2023/01/16 10:00:09;;;;;;;0.32;0.30;;;8.70;99.90;;;;;;5052770;28;20211;-66
2023/01/16 10:02:37;;;;;;;0.30;0.30;;;8.70;99.90;;;;;;5056758;28;20615;-68
2023/01/16 10:05:05;;;;;;;0.40;0.40;;;8.70;99.90;;;;;;5050410;28;20744;-65
2023/01/16 10:07:56;;;;;;;0.30;0.30;;;8.60;99.90;;;;;;5050871;28;20220;-65
2023/01/16 10:10:43;;;;;;;0.23;0.23;;;8.60;99.90;;;;;;5047696;28;20334;-64
2023/01/16 10:13:25;;;;;;;0.30;0.30;;;8.50;99.90;;;;;;5048657;28;20677;-64
2023/01/16 10:16:03;;;;;;;0.30;0.30;;;8.50;99.90;;;;;;5050139;28;20200;-65
2023/01/16 10:18:37;;;;;;;0.30;0.30;;;8.40;99.90;;;;;;5049811;28;20632;-64
2023/01/16 10:21:49;;;;;;;0.25;0.25;;;8.40;99.90;;;;;;5049020;28;20286;-66
2023/01/16 10:24:29;;;;;;;0.40;0.40;;;8.30;99.90;;;;;;5035171;28;20206;-65
2023/01/16 10:26:58;;;;;;;0.30;0.30;;;8.20;99.90;;;;;;5051083;28;20222;-64
2023/01/16 10:29:34;;;;;;;0.30;0.30;;;8.20;99.90;;;;;;5050530;28;20594;-64
2023/01/16 10:32:06;;;;;;;0.43;0.43;;;8.20;99.90;;;;;;5047356;28;20207;-66
2023/01/16 10:34:38;;;;;;;0.30;0.30;;;8.20;99.90;;;;;;5050123;28;20200;-64
2023/01/16 10:37:07;;;;;;;0.30;0.30;;;8.20;99.90;;;;;;5050402;28;20253;-66
2023/01/16 10:39:37;;;;;;;0.35;0.35;;;8.20;99.90;;;;;;5050924;28;20222;-65
2023/01/16 10:50:38;;;;;;;0.30;0.30;;;8.20;99.90;;;;;;5054109;28;20219;-64
2023/01/16 10:53:07;;;;;;;0.40;0.40;;;8.20;99.90;;;;;;5053163;28;20230;-69
2023/01/16 10:55:39;;;;;;;0.20;0.20;;;8.20;99.90;;;;;;5052475;28;20257;-65
2023/01/16 10:58:16;;;;;;;0.20;0.20;;;8.30;99.90;;;;;;5053650;28;20219;-68
2023/01/16 11:00:44;;;;;;;0.37;0.37;;;8.30;99.90;;;;;;5059963;28;20186;-64
2023/01/16 11:03:15;;;;;;;0.30;0.30;;;8.30;99.90;;;;;;5054656;28;20658;-64
2023/01/16 11:05:43;;;;;;;1.50;0.30;;;8.30;99.90;;;;;;5049414;28;20283;-66
2023/01/16 11:08:12;;;;;;;0.38;0.38;;;8.30;99.90;;;;;;5054613;28;20236;-66
2023/01/16 11:10:42;;;;;;;0.50;0.50;;;8.30;99.90;;;;;;5053358;28;20224;-66
2023/01/16 11:18:48;;;;;;;0.30;0.30;;;8.40;99.90;;;;;;5051804;28;20223;-68
2023/01/16 11:21:18;;;;;;;0.30;0.30;;;8.40;99.90;;;;;;5054632;28;20651;-65
2023/01/16 11:23:48;;;;;;;0.20;0.20;;;8.50;99.90;;;;;;5053514;28;20215;-64
2023/01/16 11:26:17;;;;;;;0.13;0.13;;;8.50;99.90;;;;;;5053950;28;20577;-64
2023/01/16 11:28:48;;;;;;;0.30;0.30;;;8.50;99.90;;;;;;5054674;28;20473;-65
2023/01/16 11:31:20;;;;;;;0.37;0.37;;;8.50;99.90;;;;;;5054787;28;20315;-66
2023/01/16 11:33:54;;;;;;;0.20;0.20;;;8.60;99.90;;;;;;5055296;28;20741;-66
2023/01/16 11:36:22;;;;;;;0.33;0.33;;;8.60;99.90;;;;;;5054400;28;20202;-66
2023/01/16 11:38:49;;;;;;;0.17;0.17;;;8.70;99.90;;;;;;5057788;28;20216;-67
2023/01/16 11:41:24;;;;;;;0.10;0.10;;;8.80;99.90;;;;;;5063912;28;20192;-65
2023/01/16 11:47:01;;;;;;;0.20;0.20;;;8.90;99.90;;;;;;5071697;28;20273;-64
2023/01/16 11:49:34;;;;;;;0.27;0.27;;;8.90;99.90;;;;;;5053414;28;20219;-64
2023/01/16 11:52:03;;;;;;;0.43;0.43;;;8.90;99.90;;;;;;5055200;28;20227;-64
2023/01/16 11:54:32;;;;;;;0.30;0.30;;;9.00;99.90;;;;;;5052396;28;20207;-65
2023/01/16 11:57:37;;;;;;;0.20;0.20;;;8.90;99.90;;;;;;5053303;28;20243;-64
2023/01/16 12:00:32;;;;;;;0.10;0.10;;;8.90;99.90;;;;;;5053667;28;20200;-64
2023/01/16 12:03:18;;;;;;;0.20;0.20;;;9.00;99.90;;;;;;5053263;28;20740;-64
2023/01/16 12:05:57;;;;;;;0.20;0.20;;;9.00;99.90;;;;;;5053069;28;20320;-67
2023/01/16 12:09:04;;;;;;;0.20;0.20;;;9.00;99.90;;;;;;5053080;28;20251;-64
2023/01/16 12:11:54;;;;;;;0.10;0.10;;;9.00;99.90;;;;;;5008158;28;20232;-66
2023/01/16 12:14:29;;;;;;;0.40;0.40;;;9.00;99.90;;;;;;5051406;28;20212;-68
2023/01/16 12:17:09;;;;;;;0.20;0.20;;;9.00;99.90;;;;;;5049464;28;20314;-65
2023/01/16 12:20:13;;;;;;;0.10;0.10;;;9.10;99.90;;;;;;5047096;28;20201;-65
2023/01/16 12:22:55;;;;;;;0.13;0.13;;;9.20;99.90;;;;;;5049944;28;20207;-67
2023/01/16 12:25:33;;;;;;;0.20;0.20;;;9.20;99.90;;;;;;5051292;28;20237;-66
2023/01/16 12:28:11;;;;;;;0.10;0.10;;;9.30;99.90;;;;;;5052249;28;20274;-64
2023/01/16 12:31:06;;;;;;;0.10;0.10;;;9.40;99.90;;;;;;5051684;28;20219;-66
2023/01/16 12:33:42;;;;;;;0.23;0.23;;;9.50;99.90;;;;;;5058132;28;20254;-63
2023/01/16 12:36:16;;;;;;;0.10;0.10;;;9.60;99.90;;;;;;5055398;28;20288;-66
2023/01/16 12:38:53;;;;;;;0.10;0.10;;;9.70;99.90;;;;;;5052184;28;20717;-66
2023/01/16 12:44:20;;;;;;;0.20;0.20;;;9.70;99.90;;;;;;5047686;28;20590;-65
2023/01/16 12:46:59;;;;;;;0.20;0.20;;;9.70;99.90;;;;;;5050048;28;20238;-68
2023/01/16 12:49:43;;;;;;;0.20;0.20;;;9.60;99.90;;;;;;5051081;28;20208;-64
2023/01/16 12:52:27;;;;;;;0.10;0.10;;;9.60;99.90;;;;;;5055093;28;20294;-65
2023/01/16 12:55:07;;;;;;;0.10;0.10;;;9.60;99.90;;;;;;5050936;28;20197;-64
2023/01/16 12:58:09;;;;;;;0.20;0.20;;;9.70;99.90;;;;;;5059032;28;20306;-66
2023/01/16 13:00:42;;;;;;;0.20;0.20;;;9.70;99.90;;;;;;4991494;28;20738;-65
2023/01/16 13:03:21;;;;;;;0.10;0.10;;;9.70;99.90;;;;;;5041075;28;20210;-68
2023/01/16 13:05:49;;;;;;;0.20;0.20;;;9.70;99.90;;;;;;5047015;28;20200;-67
2023/01/16 13:08:21;;;;;;;0.20;0.20;;;9.80;99.90;;;;;;5049700;28;20226;-64
2023/01/16 13:13:43;;;;;;;0.20;0.20;;;9.80;99.90;;;;;;5049148;28;20250;-64
2023/01/16 13:16:16;;;;;;;0.10;0.10;;;9.90;99.90;;;;;;5053408;28;20204;-66
2023/01/16 13:18:48;;;;;;;0.13;0.13;;;9.90;99.90;;;;;;5052111;28;20220;-66
2023/01/16 13:21:18;;;;;;;0.30;0.30;;;9.80;99.90;;;;;;5042998;28;20208;-66
2023/01/16 13:23:49;;;;;;;0.30;0.30;;;9.80;99.90;;;;;;5051193;28;20196;-65
2023/01/16 13:26:19;;;;;;;0.10;0.10;;;9.90;99.90;;;;;;5048810;28;20196;-64
2023/01/16 13:28:52;;;;;;;0.20;0.20;;;9.90;99.90;;;;;;5051494;28;20224;-67
2023/01/16 13:31:30;;;;;;;0.13;0.13;;;9.80;99.90;;;;;;5048643;28;20284;-65
2023/01/16 13:34:04;;;;;;;0.27;0.27;;;9.70;99.90;;;;;;5049472;28;20313;-66
2023/01/16 13:36:58;;;;;;;1.23;0.40;;;9.70;99.90;;;;;;5058511;28;20211;-64
2023/01/16 13:40:03;;;;;;;0.20;0.20;;;9.60;99.90;;;;;;5051554;28;20683;-66
2023/01/16 13:42:32;;;;;;;0.30;0.30;;;9.50;99.90;;;;;;5035222;28;20539;-65
2023/01/16 13:47:49;;;;;;;0.20;0.20;;;9.40;99.90;;;;;;5052545;28;20298;-68
2023/01/16 13:50:24;;;;;;;0.17;0.17;;;9.30;99.90;;;;;;5052167;28;20275;-65
2023/01/16 13:52:54;;;;;;;0.17;0.17;;;9.30;99.90;;;;;;5051670;28;20211;-66
2023/01/16 13:55:40;;;;;;;0.13;0.13;;;9.30;99.90;;;;;;5052705;28;20203;-65
2023/01/16 13:58:10;;;;;;;0.50;0.20;;;9.40;99.90;;;;;;5051969;28;20223;-64
2023/01/16 14:00:38;;;;;;;0.30;0.30;;;9.40;99.90;;;;;;5054034;28;20279;-67
2023/01/16 14:03:21;;;;;;;0.30;0.30;;;9.30;99.90;;;;;;5052855;28;20214;-68
2023/01/16 14:05:52;;;;;;;0.40;0.40;;;9.30;99.90;;;;;;5053920;28;20210;-65
2023/01/16 14:11:38;;;;;;;0.20;0.20;;;9.20;99.90;;;;;;5049409;28;20280;-68
2023/01/16 14:17:07;;;;;;;0.25;0.25;;;9.20;99.90;;;;;;5050523;28;20614;-67
2023/01/16 14:19:38;;;;;;;0.23;0.23;;;9.20;99.90;;;;;;5049488;28;20210;-64
2023/01/16 14:24:54;;;;;;;0.27;0.27;;;9.20;99.90;;;;;;5052059;28;20246;-69